Time;durP1;ratioP1;P1;durP2;ratioP2;P2;SDS_P1;SDS_P2;PMS_P1;PMS_P2;Temp;Humidity;BMP_temperature;BMP_pressure;BME280_temperature;BME280_humidity;BME280_pressure;Samples;Min_cycle;Max_cycle;Signal;HPM_P1;HPM_P2
2022/06/20 00:00:46;;;;;;;24.17;5.40;;;;;;;;;;5034851;28;20486;-70
2022/06/20 00:03:23;;;;;;;20.65;4.97;;;;;;;;;;5040709;28;20171;-70
2022/06/20 00:05:49;;;;;;;24.27;5.43;;;;;;;;;;5035946;28;20052;-69
2022/06/20 00:08:16;;;;;;;14.60;4.65;;;;;;;;;;5038214;28;20037;-70
2022/06/20 00:10:44;;;;;;;23.30;5.45;;;;;;;;;;5040190;28;20090;-72
2022/06/20 00:13:22;;;;;;;19.73;4.70;;;;;;;;;;5039425;28;20047;-74
2022/06/20 00:15:50;;;;;;;24.95;5.15;;;;;;;;;;5038229;28;20061;-70
2022/06/20 00:18:16;;;;;;;22.33;5.10;;;;;;;;;;5042116;28;20048;-72
2022/06/20 00:20:42;;;;;;;27.50;5.57;;;;;;;;;;5036078;28;20148;-68
2022/06/20 00:23:09;;;;;;;29.27;5.40;;;;;;;;;;5041027;28;20059;-69
2022/06/20 00:25:35;;;;;;;22.52;5.07;;;;;;;;;;5038293;28;20068;-71
2022/06/20 00:28:03;;;;;;;24.67;5.35;;;;;;;;;;5042818;28;20057;-67
2022/06/20 00:30:29;;;;;;;26.95;5.50;;;;;;;;;;5038885;28;20049;-68
2022/06/20 00:32:55;;;;;;;25.20;5.32;;;;;;;;;;5040611;28;20049;-73
2022/06/20 00:35:21;;;;;;;20.58;5.72;;;;;;;;;;5040141;28;20106;-71
2022/06/20 00:37:48;;;;;;;21.65;5.20;;;;;;;;;;5037842;28;20350;-74
2022/06/20 00:40:19;;;;;;;24.80;5.57;;;;;;;;;;5039070;28;20310;-69
2022/06/20 00:42:45;;;;;;;20.00;5.30;;;;;;;;;;5041675;28;20212;-69
2022/06/20 00:45:13;;;;;;;20.52;5.38;;;;;;;;;;5034539;28;20395;-68
2022/06/20 00:47:39;;;;;;;26.55;5.18;;;;;;;;;;5042640;28;20081;-71
2022/06/20 00:50:12;;;;;;;26.27;5.63;;;;;;;;;;5040329;28;20502;-70
2022/06/20 00:52:44;;;;;;;23.73;5.85;;;;;;;;;;5042282;28;20065;-73
2022/06/20 00:55:35;;;;;;;27.00;5.72;;;;;;;;;;5033466;28;20346;-70
2022/06/20 00:58:15;;;;;;;25.75;5.90;;;;;;;;;;5039406;28;20530;-68
2022/06/20 01:00:41;;;;;;;22.25;5.50;;;;;;;;;;5038293;28;20386;-68
2022/06/20 01:03:13;;;;;;;22.73;5.30;;;;;;;;;;5040043;28;20061;-70
2022/06/20 01:05:43;;;;;;;24.88;5.57;;;;;;;;;;5038303;28;20053;-72
2022/06/20 01:08:22;;;;;;;28.73;6.15;;;;;;;;;;5035261;28;20056;-71
2022/06/20 01:11:00;;;;;;;26.50;6.15;;;;;;;;;;5040693;28;20110;-71
2022/06/20 01:13:27;;;;;;;26.58;6.10;;;;;;;;;;5040272;28;20422;-70
2022/06/20 01:15:57;;;;;;;19.92;5.38;;;;;;;;;;5036129;28;20052;-71
2022/06/20 01:18:30;;;;;;;33.42;6.15;;;;;;;;;;5036265;28;20041;-69
2022/06/20 01:20:58;;;;;;;26.25;5.32;;;;;;;;;;5039013;28;20135;-68
2022/06/20 01:23:48;;;;;;;24.50;5.75;;;;;;;;;;5036021;28;20052;-69
2022/06/20 01:26:48;;;;;;;26.83;5.95;;;;;;;;;;5037121;28;20408;-69
2022/06/20 01:29:15;;;;;;;18.77;5.53;;;;;;;;;;5035872;28;20508;-72
2022/06/20 01:31:48;;;;;;;30.33;6.20;;;;;;;;;;5035913;28;20739;-71
2022/06/20 01:34:16;;;;;;;22.60;5.53;;;;;;;;;;5039682;28;20751;-71
2022/06/20 01:39:31;;;;;;;28.25;5.68;;;;;;;;;;5037007;28;20528;-67
2022/06/20 01:44:45;;;;;;;26.38;5.72;;;;;;;;;;5035387;28;20045;-71
2022/06/20 01:47:11;;;;;;;21.95;5.10;;;;;;;;;;5036228;28;20057;-70
2022/06/20 01:49:40;;;;;;;23.48;5.28;;;;;;;;;;5038340;28;20091;-69
2022/06/20 01:52:23;;;;;;;26.20;6.00;;;;;;;;;;5034390;28;20056;-66
2022/06/20 01:55:00;;;;;;;21.27;5.67;;;;;;;;;;5034488;28;20048;-70
2022/06/20 01:57:28;;;;;;;25.33;5.45;;;;;;;;;;5034221;28;20724;-67
2022/06/20 02:00:03;;;;;;;25.83;5.57;;;;;;;;;;5035765;28;20053;-71
2022/06/20 02:02:33;;;;;;;24.13;5.53;;;;;;;;;;5039025;28;20620;-69
2022/06/20 02:05:03;;;;;;;21.15;5.20;;;;;;;;;;5035094;28;20057;-68
2022/06/20 02:07:28;;;;;;;19.80;5.55;;;;;;;;;;5037545;28;20429;-65
2022/06/20 02:09:54;;;;;;;22.30;5.63;;;;;;;;;;5034246;28;20050;-70
2022/06/20 02:12:21;;;;;;;27.10;5.40;;;;;;;;;;5035339;28;20052;-70
2022/06/20 02:14:52;;;;;;;21.33;5.70;;;;;;;;;;5033438;28;20048;-74
2022/06/20 02:17:40;;;;;;;30.73;5.35;;;;;;;;;;5039320;28;20079;-69
2022/06/20 02:20:13;;;;;;;24.35;5.47;;;;;;;;;;5036743;28;20469;-67
2022/06/20 02:22:40;;;;;;;23.50;5.03;;;;;;;;;;5037024;28;20573;-73
2022/06/20 02:25:10;;;;;;;20.60;5.40;;;;;;;;;;5032071;28;20498;-68
2022/06/20 02:27:50;;;;;;;23.40;5.85;;;;;;;;;;5036793;28;20087;-66
2022/06/20 02:30:16;;;;;;;25.98;5.75;;;;;;;;;;5035563;28;20041;-69
2022/06/20 02:33:14;;;;;;;29.20;6.15;;;;;;;;;;5038327;28;20053;-71
2022/06/20 02:35:40;;;;;;;20.00;5.70;;;;;;;;;;5028876;28;20106;-67
2022/06/20 02:38:07;;;;;;;27.08;5.82;;;;;;;;;;5035895;28;20060;-69
2022/06/20 02:40:33;;;;;;;21.63;6.07;;;;;;;;;;5035493;28;20045;-69
2022/06/20 02:43:09;;;;;;;24.52;5.70;;;;;;;;;;5037078;28;20048;-71
2022/06/20 02:45:38;;;;;;;26.17;6.22;;;;;;;;;;5034388;28;20049;-71
2022/06/20 02:48:07;;;;;;;20.58;6.35;;;;;;;;;;5038225;28;20498;-69
2022/06/20 02:50:52;;;;;;;27.92;5.90;;;;;;;;;;5038893;28;20124;-67
2022/06/20 02:53:25;;;;;;;22.73;5.95;;;;;;;;;;5032869;28;20049;-72
2022/06/20 02:55:51;;;;;;;22.45;6.05;;;;;;;;;;5034812;28;20061;-70
2022/06/20 02:58:25;;;;;;;25.75;6.28;;;;;;;;;;5038517;28;20049;-69
2022/06/20 03:01:14;;;;;;;28.13;5.65;;;;;;;;;;5036102;28;20445;-71
2022/06/20 03:03:46;;;;;;;20.50;5.50;;;;;;;;;;5039622;28;20053;-67
2022/06/20 03:06:29;;;;;;;13.50;5.00;;;;;;;;;;5034547;28;20295;-68
2022/06/20 03:08:56;;;;;;;24.98;5.70;;;;;;;;;;5035382;28;20771;-67
2022/06/20 03:11:23;;;;;;;21.70;5.32;;;;;;;;;;5036924;28;20053;-70
2022/06/20 03:13:50;;;;;;;21.42;5.18;;;;;;;;;;5034804;28;20445;-72
2022/06/20 03:16:17;;;;;;;22.15;5.22;;;;;;;;;;5036435;28;20075;-74
2022/06/20 03:18:45;;;;;;;17.67;5.18;;;;;;;;;;5036436;28;20057;-72
2022/06/20 03:21:12;;;;;;;19.73;5.07;;;;;;;;;;5034611;28;20060;-72
2022/06/20 03:23:38;;;;;;;20.60;5.10;;;;;;;;;;5033481;28;20169;-73
2022/06/20 03:26:11;;;;;;;25.90;5.95;;;;;;;;;;5036413;28;21218;-70
2022/06/20 03:28:37;;;;;;;28.27;5.57;;;;;;;;;;5035341;28;20429;-67
2022/06/20 03:31:04;;;;;;;23.60;5.60;;;;;;;;;;5033864;28;20302;-67
2022/06/20 03:33:31;;;;;;;20.75;5.45;;;;;;;;;;5043998;28;20053;-68
2022/06/20 03:36:14;;;;;;;19.45;5.20;;;;;;;;;;5037964;28;20072;-68
2022/06/20 03:38:44;;;;;;;26.83;5.53;;;;;;;;;;5039386;28;20044;-68
2022/06/20 03:41:12;;;;;;;17.67;5.55;;;;;;;;;;5039790;28;20399;-73
2022/06/20 03:43:41;;;;;;;20.15;5.20;;;;;;;;;;5038874;28;20359;-70
2022/06/20 03:46:19;;;;;;;22.13;5.68;;;;;;;;;;5039947;28;20293;-68
2022/06/20 03:48:57;;;;;;;25.63;5.45;;;;;;;;;;5042346;28;20130;-72
2022/06/20 03:51:34;;;;;;;23.63;5.68;;;;;;;;;;5040461;28;20108;-70
2022/06/20 03:54:19;;;;;;;26.52;5.88;;;;;;;;;;5036094;28;20067;-72
2022/06/20 03:57:14;;;;;;;22.63;5.88;;;;;;;;;;5039758;28;20099;-71
2022/06/20 03:59:45;;;;;;;;;;;;;;;;;;5039839;28;20107;-67
2022/06/20 04:02:24;;;;;;;24.20;5.63;;;;;;;;;;5038599;28;20322;-69
2022/06/20 04:05:12;;;;;;;24.50;6.57;;;;;;;;;;5037391;28;20049;-71
2022/06/20 04:08:06;;;;;;;18.92;6.28;;;;;;;;;;5039811;28;20049;-68
2022/06/20 04:10:58;;;;;;;30.27;6.05;;;;;;;;;;5035069;28;20451;-66
2022/06/20 04:13:40;;;;;;;24.58;6.28;;;;;;;;;;5038604;28;20439;-69
2022/06/20 04:16:08;;;;;;;22.38;5.47;;;;;;;;;;5037775;28;20053;-68
2022/06/20 04:18:43;;;;;;;22.65;5.80;;;;;;;;;;5037658;28;20441;-68
2022/06/20 04:21:30;;;;;;;19.38;5.80;;;;;;;;;;5035865;28;20128;-71
2022/06/20 04:23:56;;;;;;;22.02;5.93;;;;;;;;;;5035547;28;20053;-74
2022/06/20 04:26:25;;;;;;;25.63;6.20;;;;;;;;;;5037046;28;20497;-70
2022/06/20 04:29:09;;;;;;;22.90;6.05;;;;;;;;;;5037283;28;20057;-66
2022/06/20 04:31:38;;;;;;;16.02;6.18;;;;;;;;;;5039162;28;20056;-70
2022/06/20 04:34:26;;;;;;;23.27;5.75;;;;;;;;;;5036661;28;20059;-69
2022/06/20 04:37:19;;;;;;;25.08;6.47;;;;;;;;;;5037818;28;20351;-72
2022/06/20 04:39:54;;;;;;;20.80;5.57;;;;;;;;;;5029416;28;20498;-66
2022/06/20 04:42:28;;;;;;;21.05;6.32;;;;;;;;;;5035042;28;20098;-71
2022/06/20 04:45:00;;;;;;;20.60;6.32;;;;;;;;;;5036243;28;20060;-72
2022/06/20 04:47:54;;;;;;;17.02;5.50;;;;;;;;;;5038708;28;20079;-69
2022/06/20 04:50:24;;;;;;;20.77;6.45;;;;;;;;;;5036600;28;20045;-67
2022/06/20 04:52:53;;;;;;;19.63;5.75;;;;;;;;;;5034360;28;20064;-74
2022/06/20 04:55:24;;;;;;;22.00;6.15;;;;;;;;;;5035964;28;20384;-70
2022/06/20 04:57:52;;;;;;;22.90;6.22;;;;;;;;;;5033831;28;20113;-70
2022/06/20 05:00:27;;;;;;;14.93;5.82;;;;;;;;;;5041038;28;20041;-71
2022/06/20 05:02:54;;;;;;;23.60;6.43;;;;;;;;;;5039578;28;20533;-69
2022/06/20 05:05:24;;;;;;;20.90;6.43;;;;;;;;;;5035439;28;20048;-70
2022/06/20 05:07:51;;;;;;;20.02;6.45;;;;;;;;;;5031591;28;20491;-72
2022/06/20 05:10:23;;;;;;;26.02;7.00;;;;;;;;;;5036826;28;20033;-70
2022/06/20 05:13:00;;;;;;;25.70;6.45;;;;;;;;;;5039911;28;20146;-73
2022/06/20 05:15:45;;;;;;;23.75;6.72;;;;;;;;;;5038078;28;20211;-72
2022/06/20 05:18:26;;;;;;;;;;;;;;;;;;5038868;28;20061;-71
2022/06/20 05:21:15;;;;;;;18.38;6.00;;;;;;;;;;5038705;28;19948;-72
2022/06/20 05:23:49;;;;;;;23.35;6.25;;;;;;;;;;5039672;28;20152;-74
2022/06/20 05:26:20;;;;;;;24.73;6.47;;;;;;;;;;5035802;28;20060;-72
2022/06/20 05:28:49;;;;;;;29.20;6.80;;;;;;;;;;5040778;28;20414;-72
2022/06/20 05:31:24;;;;;;;23.10;6.50;;;;;;;;;;5040086;28;20092;-71
2022/06/20 05:34:00;;;;;;;23.30;6.78;;;;;;;;;;5039271;28;20466;-73
2022/06/20 05:36:30;;;;;;;23.70;6.82;;;;;;;;;;5031407;28;20037;-72
2022/06/20 05:39:28;;;;;;;25.95;6.90;;;;;;;;;;5036318;28;20108;-73
2022/06/20 05:41:55;;;;;;;22.17;6.88;;;;;;;;;;5030417;28;20079;-78
2022/06/20 05:44:21;;;;;;;21.95;7.35;;;;;;;;;;5037027;28;20114;-76
2022/06/20 05:46:53;;;;;;;28.30;7.03;;;;;;;;;;5035493;28;20049;-71
2022/06/20 05:49:41;;;;;;;26.17;7.35;;;;;;;;;;5037220;28;20052;-74
2022/06/20 05:52:08;;;;;;;22.60;6.68;;;;;;;;;;5035310;28;20394;-74
2022/06/20 05:54:42;;;;;;;33.33;7.68;;;;;;;;;;5038469;28;20083;-76
2022/06/20 05:57:13;;;;;;;17.83;6.55;;;;;;;;;;5037783;28;20080;-72
2022/06/20 05:59:48;;;;;;;23.45;6.28;;;;;;;;;;5037826;28;20584;-74
2022/06/20 06:02:14;;;;;;;23.58;6.32;;;;;;;;;;5036565;28;20061;-74
2022/06/20 06:04:47;;;;;;;30.45;7.07;;;;;;;;;;5033829;28;20067;-71
2022/06/20 06:07:17;;;;;;;24.80;6.45;;;;;;;;;;5035305;28;20079;-74
2022/06/20 06:09:53;;;;;;;25.05;7.28;;;;;;;;;;5037700;28;20064;-75
2022/06/20 06:12:28;;;;;;;26.60;7.30;;;;;;;;;;5037303;28;20044;-74
2022/06/20 06:15:14;;;;;;;28.73;7.50;;;;;;;;;;5036861;28;20060;-73
2022/06/20 06:17:51;;;;;;;28.08;7.57;;;;;;;;;;5037285;28;20409;-73
2022/06/20 06:20:24;;;;;;;21.10;7.32;;;;;;;;;;5037511;28;20045;-71
2022/06/20 06:22:59;;;;;;;27.08;6.93;;;;;;;;;;5039914;28;20053;-73
2022/06/20 06:25:30;;;;;;;33.10;8.00;;;;;;;;;;5034996;28;20053;-73
2022/06/20 06:28:05;;;;;;;29.90;7.47;;;;;;;;;;5036017;28;20044;-73
2022/06/20 06:30:39;;;;;;;32.85;7.75;;;;;;;;;;5040736;28;20091;-75
2022/06/20 06:33:25;;;;;;;26.35;7.47;;;;;;;;;;5041120;28;20124;-73
2022/06/20 06:35:58;;;;;;;23.10;7.45;;;;;;;;;;5038403;28;20384;-74
2022/06/20 06:39:13;;;;;;;26.45;6.97;;;;;;;;;;5041569;28;20049;-70
2022/06/20 06:41:45;;;;;;;24.38;7.03;;;;;;;;;;5034797;28;20053;-71
2022/06/20 06:44:24;;;;;;;23.60;7.13;;;;;;;;;;5031970;28;20446;-72
2022/06/20 06:46:53;;;;;;;34.28;7.55;;;;;;;;;;5038024;28;20052;-74
2022/06/20 06:49:40;;;;;;;24.65;6.93;;;;;;;;;;5038033;28;20044;-73
2022/06/20 06:52:31;;;;;;;33.67;7.63;;;;;;;;;;5025761;28;20506;-71
2022/06/20 06:55:16;;;;;;;27.25;7.35;;;;;;;;;;5031776;28;20140;-72
2022/06/20 06:57:45;;;;;;;23.85;7.57;;;;;;;;;;5035047;28;20055;-74
2022/06/20 07:00:16;;;;;;;26.23;7.07;;;;;;;;;;5028144;28;20073;-72
2022/06/20 07:02:48;;;;;;;29.13;7.55;;;;;;;;;;5041013;28;20064;-72
2022/06/20 07:05:37;;;;;;;21.60;7.50;;;;;;;;;;5031597;28;20057;-75
2022/06/20 07:08:23;;;;;;;25.45;6.97;;;;;;;;;;5029846;28;20046;-72
2022/06/20 07:11:01;;;;;;;21.33;7.20;;;;;;;;;;5039593;28;20331;-71
2022/06/20 07:13:39;;;;;;;37.80;11.50;;;;;;;;;;5042130;28;20053;-73
2022/06/20 07:16:16;;;;;;;26.27;7.38;;;;;;;;;;5028371;28;20115;-70
2022/06/20 07:18:46;;;;;;;25.33;7.43;;;;;;;;;;5031896;28;20045;-71
2022/06/20 07:21:17;;;;;;;28.00;6.43;;;;;;;;;;5036745;28;20045;-72
2022/06/20 07:23:46;;;;;;;25.45;6.60;;;;;;;;;;5029872;28;20131;-70
2022/06/20 07:26:17;;;;;;;29.73;6.47;;;;;;;;;;5038104;28;20411;-71
2022/06/20 07:28:51;;;;;;;20.35;5.95;;;;;;;;;;5035088;28;20053;-71
2022/06/20 07:31:21;;;;;;;22.80;6.65;;;;;;;;;;5025423;28;20056;-71
2022/06/20 07:33:55;;;;;;;24.48;6.40;;;;;;;;;;5030485;28;20509;-72
2022/06/20 07:36:27;;;;;;;27.45;6.78;;;;;;;;;;5032135;28;20165;-71
2022/06/20 07:39:03;;;;;;;24.08;6.97;;;;;;;;;;5034222;28;20436;-72
2022/06/20 07:41:37;;;;;;;24.05;6.95;;;;;;;;;;5036744;28;20052;-74
2022/06/20 07:44:03;;;;;;;;;;;;;;;;;;5024600;28;20056;-69
2022/06/20 07:46:37;;;;;;;22.67;6.78;;;;;;;;;;5025305;28;19921;-73
2022/06/20 07:49:13;;;;;;;26.65;6.82;;;;;;;;;;5038135;28;20056;-72
2022/06/20 07:51:42;;;;;;;21.73;6.78;;;;;;;;;;5030842;28;20053;-72
2022/06/20 07:54:27;;;;;;;21.33;6.50;;;;;;;;;;5031128;28;20054;-75
2022/06/20 07:56:59;;;;;;;28.85;7.22;;;;;;;;;;5024664;28;23494;-72
2022/06/20 07:59:43;;;;;;;26.40;7.22;;;;;;;;;;5023935;28;20122;-74
2022/06/20 08:02:30;;;;;;;26.90;8.20;;;;;;;;;;5025539;28;20049;-72
2022/06/20 08:04:59;;;;;;;29.40;7.43;;;;;;;;;;5026187;28;20111;-72
2022/06/20 08:07:35;;;;;;;18.98;6.60;;;;;;;;;;5028986;28;20088;-74
2022/06/20 08:10:07;;;;;;;30.42;7.15;;;;;;;;;;5038308;28;20071;-75
2022/06/20 08:12:54;;;;;;;25.75;7.13;;;;;;;;;;5025192;28;20041;-72
2022/06/20 08:15:23;;;;;;;22.98;6.70;;;;;;;;;;5028986;28;20467;-75
2022/06/20 08:17:51;;;;;;;27.27;7.03;;;;;;;;;;5049051;28;20588;-73
2022/06/20 08:20:18;;;;;;;25.25;6.70;;;;;;;;;;5048341;28;20437;-70
2022/06/20 08:23:34;;;;;;;27.15;7.30;;;;;;;;;;5041162;28;20072;-71
2022/06/20 08:26:06;;;;;;;24.80;6.95;;;;;;;;;;5044460;28;20056;-73
2022/06/20 08:29:11;;;;;;;22.90;6.13;;;;;;;;;;5042152;28;20098;-72
2022/06/20 08:31:51;;;;;;;21.60;6.82;;;;;;;;;;5006614;28;20115;-72
2022/06/20 08:34:35;;;;;;;24.23;6.95;;;;;;;;;;5042641;28;20103;-71
2022/06/20 08:37:10;;;;;;;23.88;6.97;;;;;;;;;;5037408;28;20099;-72
2022/06/20 08:39:56;;;;;;;25.75;7.40;;;;;;;;;;5045508;28;20507;-72
2022/06/20 08:42:47;;;;;;;24.40;6.85;;;;;;;;;;5036685;28;20044;-73
2022/06/20 08:45:16;;;;;;;22.23;6.97;;;;;;;;;;5033317;28;20132;-70
2022/06/20 08:47:53;;;;;;;26.70;7.10;;;;;;;;;;5033563;28;20041;-70
2022/06/20 08:50:38;;;;;;;26.52;6.65;;;;;;;;;;5037355;28;20077;-71
2022/06/20 08:53:07;;;;;;;21.45;6.50;;;;;;;;;;5035524;28;20045;-75
2022/06/20 08:56:01;;;;;;;17.85;6.30;;;;;;;;;;5038100;28;20045;-70
2022/06/20 08:58:54;;;;;;;22.77;6.15;;;;;;;;;;5038884;28;20159;-74
2022/06/20 09:01:20;;;;;;;20.50;6.90;;;;;;;;;;5038686;28;20106;-72
2022/06/20 09:04:06;;;;;;;23.05;6.28;;;;;;;;;;5034479;28;20057;-70
2022/06/20 09:06:46;;;;;;;35.75;6.97;;;;;;;;;;5038339;28;20064;-70
2022/06/20 09:09:42;;;;;;;27.90;6.88;;;;;;;;;;5038184;28;20029;-72
2022/06/20 09:12:22;;;;;;;21.55;6.68;;;;;;;;;;5032171;28;20118;-72
2022/06/20 09:15:08;;;;;;;22.45;6.53;;;;;;;;;;5032192;28;20045;-71
2022/06/20 09:17:43;;;;;;;24.08;7.03;;;;;;;;;;5043487;28;20453;-72
2022/06/20 09:20:21;;;;;;;21.08;6.78;;;;;;;;;;5043777;28;20037;-71
2022/06/20 09:22:52;;;;;;;26.60;6.65;;;;;;;;;;5042924;28;20474;-75
2022/06/20 09:25:50;;;;;;;25.05;7.10;;;;;;;;;;5048981;28;20045;-72
2022/06/20 09:28:54;;;;;;;24.52;7.57;;;;;;;;;;5043476;28;20241;-68
2022/06/20 09:31:58;;;;;;;29.75;8.32;;;;;;;;;;5041528;28;20420;-71
2022/06/20 09:34:50;;;;;;;24.60;8.07;;;;;;;;;;5043829;28;20110;-72
2022/06/20 09:38:03;;;;;;;29.70;8.68;;;;;;;;;;5024579;28;20580;-70
2022/06/20 09:40:44;;;;;;;23.92;7.75;;;;;;;;;;4976011;28;20218;-72
2022/06/20 09:43:41;;;;;;;23.95;8.40;;;;;;;;;;4964605;28;20473;-71
2022/06/20 09:46:35;;;;;;;23.85;8.13;;;;;;;;;;4967137;28;20047;-72
2022/06/20 09:49:18;;;;;;;30.02;7.63;;;;;;;;;;4976703;28;20054;-75
2022/06/20 09:52:05;;;;;;;21.80;7.90;;;;;;;;;;4976717;28;20046;-70
2022/06/20 09:54:49;;;;;;;28.80;8.40;;;;;;;;;;4983216;28;20069;-70
2022/06/20 09:57:32;;;;;;;26.92;8.07;;;;;;;;;;4977272;28;20055;-71
2022/06/20 10:00:07;;;;;;;20.00;7.65;;;;;;;;;;4983757;28;20038;-72
2022/06/20 10:03:04;;;;;;;20.67;7.78;;;;;;;;;;4984233;28;20042;-71
2022/06/20 10:05:36;;;;;;;21.83;7.95;;;;;;;;;;4977923;28;20042;-71
2022/06/20 10:08:23;;;;;;;18.70;7.88;;;;;;;;;;4971063;28;20116;-75
2022/06/20 10:10:57;;;;;;;27.95;8.40;;;;;;;;;;4996228;28;20672;-71
2022/06/20 10:13:48;;;;;;;25.25;7.75;;;;;;;;;;5043224;28;20359;-70
2022/06/20 10:16:26;;;;;;;25.70;8.00;;;;;;;;;;5047414;28;20045;-72
2022/06/20 10:19:01;;;;;;;26.08;8.50;;;;;;;;;;5034567;28;20052;-71
2022/06/20 10:22:05;;;;;;;25.55;8.65;;;;;;;;;;5032992;28;20132;-71
2022/06/20 10:25:24;;;;;;;22.17;8.57;;;;;;;;;;5038403;28;20056;-73
2022/06/20 10:27:50;;;;;;;25.38;8.20;;;;;;;;;;5038883;28;20053;-76
2022/06/20 10:30:25;;;;;;;28.15;8.40;;;;;;;;;;5044283;28;20049;-70
2022/06/20 10:33:08;;;;;;;31.85;9.23;;;;;;;;;;5037168;28;20053;-69
2022/06/20 10:36:03;;;;;;;27.48;8.45;;;;;;;;;;5031318;28;20816;-73
2022/06/20 10:38:40;;;;;;;22.10;8.90;;;;;;;;;;5033153;28;20114;-72
2022/06/20 10:41:12;;;;;;;20.70;8.82;;;;;;;;;;5038172;28;20554;-69
2022/06/20 10:43:44;;;;;;;20.70;8.35;;;;;;;;;;5031142;28;20380;-70
2022/06/20 10:46:34;;;;;;;20.48;8.07;;;;;;;;;;5029377;28;20049;-71
2022/06/20 10:48:59;;;;;;;17.67;7.30;;;;;;;;;;5031818;28;20056;-70
2022/06/20 10:51:50;;;;;;;21.33;8.45;;;;;;;;;;5028266;28;20044;-71
2022/06/20 10:54:53;;;;;;;29.73;8.88;;;;;;;;;;5042487;28;20059;-73
2022/06/20 10:57:38;;;;;;;18.52;7.53;;;;;;;;;;5025457;28;20095;-75
2022/06/20 11:00:10;;;;;;;21.98;7.38;;;;;;;;;;5034681;28;20073;-70
2022/06/20 11:03:07;;;;;;;25.17;8.77;;;;;;;;;;5037597;28;20399;-74
2022/06/20 11:05:36;;;;;;;28.75;8.88;;;;;;;;;;5036693;28;20293;-69
2022/06/20 11:08:13;;;;;;;26.63;8.45;;;;;;;;;;5042617;28;20041;-74
2022/06/20 11:10:48;;;;;;;32.70;8.70;;;;;;;;;;5044613;28;20043;-72
2022/06/20 11:13:29;;;;;;;24.42;8.18;;;;;;;;;;5027139;28;20084;-70
2022/06/20 11:15:54;;;;;;;20.98;7.25;;;;;;;;;;5028040;28;20121;-73
2022/06/20 11:18:20;;;;;;;25.33;6.90;;;;;;;;;;5030045;28;20165;-70
2022/06/20 11:21:25;;;;;;;25.60;7.28;;;;;;;;;;5031683;28;20550;-71
2022/06/20 11:24:15;;;;;;;23.00;6.88;;;;;;;;;;5038088;28;20056;-70
2022/06/20 11:26:48;;;;;;;24.42;7.50;;;;;;;;;;5027145;28;20065;-71
2022/06/20 11:29:20;;;;;;;24.85;7.00;;;;;;;;;;5034455;28;20049;-74
2022/06/20 11:32:17;;;;;;;24.73;7.88;;;;;;;;;;5034440;28;20049;-72
2022/06/20 11:34:53;;;;;;;33.63;8.13;;;;;;;;;;5026234;28;20045;-72
2022/06/20 11:37:33;;;;;;;17.50;7.10;;;;;;;;;;5026315;28;20050;-74
2022/06/20 11:40:13;;;;;;;27.02;7.05;;;;;;;;;;5029028;28;20057;-71
2022/06/20 11:43:08;;;;;;;25.13;7.82;;;;;;;;;;5035131;28;20105;-72
2022/06/20 11:46:17;;;;;;;21.75;7.05;;;;;;;;;;5038826;28;20060;-69
2022/06/20 11:48:48;;;;;;;26.38;7.05;;;;;;;;;;5029640;28;20216;-70
2022/06/20 11:51:36;;;;;;;29.70;7.47;;;;;;;;;;5032292;28;20504;-71
2022/06/20 11:54:30;;;;;;;28.00;8.07;;;;;;;;;;5028091;28;20416;-72
2022/06/20 11:57:28;;;;;;;31.60;7.57;;;;;;;;;;5027718;28;20045;-71
2022/06/20 11:59:59;;;;;;;18.50;5.95;;;;;;;;;;5044126;28;20483;-71
2022/06/20 12:02:44;;;;;;;19.55;5.95;;;;;;;;;;5042118;28;20414;-71
2022/06/20 12:05:18;;;;;;;24.70;6.90;;;;;;;;;;5038368;28;20056;-70
2022/06/20 12:07:53;;;;;;;21.05;6.43;;;;;;;;;;5031176;28;20044;-72
2022/06/20 12:10:43;;;;;;;24.95;5.72;;;;;;;;;;5041695;28;20049;-74
2022/06/20 12:13:23;;;;;;;22.58;5.88;;;;;;;;;;5038408;28;20063;-72
2022/06/20 12:16:01;;;;;;;23.17;5.50;;;;;;;;;;5039709;28;20063;-71
2022/06/20 12:18:33;;;;;;;30.75;6.18;;;;;;;;;;5029779;28;20060;-70
2022/06/20 12:23:53;;;;;;;21.20;5.95;;;;;;;;;;5034415;28;20068;-75
2022/06/20 12:26:29;;;;;;;18.13;5.20;;;;;;;;;;5039118;28;20076;-70
2022/06/20 12:28:58;;;;;;;17.55;5.65;;;;;;;;;;5035767;28;20506;-69
2022/06/20 12:31:35;;;;;;;19.88;5.43;;;;;;;;;;5048580;28;20060;-75
2022/06/20 12:34:27;;;;;;;25.40;6.40;;;;;;;;;;5035943;28;20116;-70
2022/06/20 12:37:18;;;;;;;18.08;5.45;;;;;;;;;;5039804;28;20083;-71
2022/06/20 12:40:03;;;;;;;15.77;5.05;;;;;;;;;;5040642;28;20419;-73
2022/06/20 12:42:47;;;;;;;17.13;4.95;;;;;;;;;;5045611;28;20060;-75
2022/06/20 12:45:35;;;;;;;19.83;4.90;;;;;;;;;;5045335;28;20363;-71
2022/06/20 12:48:28;;;;;;;24.05;5.22;;;;;;;;;;5035870;28;20038;-74
2022/06/20 12:51:22;;;;;;;18.98;4.60;;;;;;;;;;5042833;28;20063;-71
2022/06/20 12:54:19;;;;;;;18.35;5.20;;;;;;;;;;5043520;28;20373;-70
2022/06/20 12:57:17;;;;;;;16.80;5.03;;;;;;;;;;5035386;28;20128;-73
2022/06/20 13:00:14;;;;;;;19.95;4.90;;;;;;;;;;5035438;28;20049;-74
2022/06/20 13:03:04;;;;;;;18.90;4.82;;;;;;;;;;5041562;28;20041;-70
2022/06/20 13:05:55;;;;;;;19.42;5.15;;;;;;;;;;5034111;28;20575;-68
2022/06/20 13:08:23;;;;;;;17.25;5.47;;;;;;;;;;5035954;28;20410;-70
2022/06/20 13:10:52;;;;;;;22.45;5.78;;;;;;;;;;5038822;28;20450;-74
2022/06/20 13:13:44;;;;;;;18.42;5.65;;;;;;;;;;5042009;28;20052;-74
2022/06/20 13:16:31;;;;;;;21.15;5.40;;;;;;;;;;5042978;28;20449;-70
2022/06/20 13:19:09;;;;;;;19.55;5.28;;;;;;;;;;5043614;28;20351;-75
2022/06/20 13:21:42;;;;;;;20.95;5.40;;;;;;;;;;5044667;28;20057;-75
2022/06/20 13:24:22;;;;;;;13.85;4.85;;;;;;;;;;5042234;28;20052;-71
2022/06/20 13:27:00;;;;;;;19.85;4.90;;;;;;;;;;5031536;28;20502;-71
2022/06/20 13:29:58;;;;;;;19.55;5.20;;;;;;;;;;5034494;28;20074;-71
2022/06/20 13:32:32;;;;;;;20.35;5.53;;;;;;;;;;5032505;28;20057;-72
2022/06/20 13:35:19;;;;;;;20.92;5.70;;;;;;;;;;5044691;28;20136;-72
2022/06/20 13:37:50;;;;;;;20.17;5.40;;;;;;;;;;5033702;28;20063;-70
2022/06/20 13:40:40;;;;;;;22.77;5.28;;;;;;;;;;5038662;28;20578;-69
2022/06/20 13:43:28;;;;;;;16.77;5.15;;;;;;;;;;5036017;28;20118;-72
2022/06/20 13:46:13;;;;;;;18.70;4.80;;;;;;;;;;5028993;28;20040;-72
2022/06/20 13:48:47;;;;;;;17.67;5.03;;;;;;;;;;5035810;28;20066;-73
2022/06/20 13:51:16;;;;;;;15.98;4.90;;;;;;;;;;5031433;28;20100;-73
2022/06/20 13:53:50;;;;;;;21.08;4.57;;;;;;;;;;5031829;28;20057;-69
2022/06/20 13:56:20;;;;;;;;;;;;;;;;;;5030332;28;20044;-71
2022/06/20 13:59:14;;;;;;;18.70;4.82;;;;;;;;;;5027548;28;19921;-70
2022/06/20 14:02:03;;;;;;;14.85;4.68;;;;;;;;;;5044259;28;20045;-73
2022/06/20 14:04:32;;;;;;;12.85;4.57;;;;;;;;;;5031693;28;20057;-70
2022/06/20 14:07:01;;;;;;;19.17;4.55;;;;;;;;;;5035849;28;20045;-73
2022/06/20 14:09:31;;;;;;;13.68;4.93;;;;;;;;;;5037310;28;20171;-73
2022/06/20 14:12:00;;;;;;;18.08;5.03;;;;;;;;;;5036087;28;20053;-69
2022/06/20 14:14:33;;;;;;;12.63;4.38;;;;;;;;;;5033420;28;20069;-74
2022/06/20 14:17:07;;;;;;;16.80;5.03;;;;;;;;;;5035246;28;20414;-69
2022/06/20 14:19:38;;;;;;;18.17;5.57;;;;;;;;;;5035048;28;20399;-71
2022/06/20 14:22:19;;;;;;;17.83;5.13;;;;;;;;;;5041532;28;20046;-75
2022/06/20 14:24:49;;;;;;;25.13;6.07;;;;;;;;;;5035466;28;20407;-73
2022/06/20 14:27:26;;;;;;;19.90;5.85;;;;;;;;;;5037305;28;20048;-70
2022/06/20 14:30:23;;;;;;;22.60;5.95;;;;;;;;;;5043581;28;20144;-73
2022/06/20 14:33:27;;;;;;;18.52;5.50;;;;;;;;;;5042064;28;20052;-71
2022/06/20 14:36:12;;;;;;;15.35;5.13;;;;;;;;;;5031523;28;20049;-69
2022/06/20 14:38:47;;;;;;;19.25;6.47;;;;;;;;;;5040546;28;20043;-75
2022/06/20 14:41:41;;;;;;;25.65;7.60;;;;;;;;;;5040610;28;20067;-72
2022/06/20 14:44:26;;;;;;;20.58;5.68;;;;;;;;;;5028955;28;20168;-69
2022/06/20 14:46:58;;;;;;;20.83;6.65;;;;;;;;;;5033436;28;20356;-69
2022/06/20 14:49:49;;;;;;;22.33;5.85;;;;;;;;;;5036187;28;20152;-70
2022/06/20 14:52:20;;;;;;;15.20;4.80;;;;;;;;;;5037919;28;20403;-68
2022/06/20 14:55:26;;;;;;;16.05;5.13;;;;;;;;;;5028485;28;20095;-78
2022/06/20 14:57:58;;;;;;;16.85;4.95;;;;;;;;;;5031115;28;20045;-70
2022/06/20 15:00:43;;;;;;;14.70;4.80;;;;;;;;;;5025293;28;20065;-68
2022/06/20 15:03:40;;;;;;;17.83;4.50;;;;;;;;;;5032216;28;20085;-70
2022/06/20 15:06:30;;;;;;;13.68;4.25;;;;;;;;;;5010344;28;20049;-75
2022/06/20 15:09:15;;;;;;;17.55;5.03;;;;;;;;;;5025964;28;20303;-70
2022/06/20 15:12:17;;;;;;;18.92;4.60;;;;;;;;;;5032124;28;20529;-73
2022/06/20 15:15:00;;;;;;;16.60;5.15;;;;;;;;;;5032590;28;20389;-70
2022/06/20 15:17:31;;;;;;;21.17;4.53;;;;;;;;;;5023048;28;20127;-69
2022/06/20 15:20:13;;;;;;;16.45;4.65;;;;;;;;;;5023703;28;20045;-70
2022/06/20 15:22:49;;;;;;;17.58;4.13;;;;;;;;;;5032505;28;20048;-69
2022/06/20 15:25:20;;;;;;;18.08;4.65;;;;;;;;;;5029425;28;20470;-75
2022/06/20 15:28:12;;;;;;;18.98;4.78;;;;;;;;;;5030956;28;20053;-68
2022/06/20 15:30:50;;;;;;;17.02;4.20;;;;;;;;;;5022425;28;20052;-70
2022/06/20 15:33:25;;;;;;;16.30;4.20;;;;;;;;;;5028237;28;20175;-69
2022/06/20 15:35:58;;;;;;;17.60;4.28;;;;;;;;;;5025047;28;20057;-69
2022/06/20 15:38:35;;;;;;;17.58;3.97;;;;;;;;;;5026870;28;20474;-73
2022/06/20 15:41:44;;;;;;;15.07;3.97;;;;;;;;;;5026809;28;20129;-68
2022/06/20 15:44:34;;;;;;;15.45;4.53;;;;;;;;;;5024412;28;20054;-75